createdAt,value
2017-08-20T00:01:26.950Z,101576.09
2017-08-20T00:03:54.548Z,101573.53
2017-08-20T00:06:22.275Z,101576.23
2017-08-20T00:08:49.906Z,101572.19
2017-08-20T00:11:17.530Z,101568.93
2017-08-20T00:13:45.126Z,101566.13
2017-08-20T00:16:12.766Z,101569.20
2017-08-20T00:18:40.386Z,101569.75
2017-08-20T00:21:07.989Z,101566.27
2017-08-20T00:23:35.574Z,101568.95
2017-08-20T00:26:03.195Z,101566.26
2017-08-20T00:28:30.810Z,101569.50
2017-08-20T00:30:58.408Z,101571.78
2017-08-20T00:33:26.054Z,101572.59
2017-08-20T00:35:53.678Z,101565.45
2017-08-20T00:38:21.274Z,101572.05
2017-08-20T00:40:48.906Z,101579.20
2017-08-20T00:43:16.633Z,101576.22
2017-08-20T00:45:44.252Z,101569.21
2017-08-20T00:48:11.912Z,101569.63
2017-08-20T00:50:39.506Z,101565.16
2017-08-20T00:53:07.139Z,101573.25
2017-08-20T00:55:34.760Z,101575.41
2017-08-20T00:58:02.358Z,101578.11
2017-08-20T01:00:29.990Z,101579.99
2017-08-20T01:02:57.606Z,101575.81
2017-08-20T01:05:25.350Z,101572.59
2017-08-20T01:07:52.955Z,101577.84
2017-08-20T01:10:20.595Z,101576.49
2017-08-20T01:12:48.187Z,101577.84
2017-08-20T01:15:15.834Z,101582.02
2017-08-20T01:17:43.434Z,101584.86
2017-08-20T01:20:11.102Z,101576.09
2017-08-20T01:22:38.689Z,101575.30
2017-08-20T01:25:06.349Z,101581.91
2017-08-20T01:27:34.021Z,101581.63
2017-08-20T01:30:01.665Z,101581.09
2017-08-20T01:32:29.259Z,101587.16
2017-08-20T01:34:56.887Z,101588.63
2017-08-20T01:37:24.606Z,101584.19
2017-08-20T01:39:52.271Z,101597.52
2017-08-20T01:42:19.970Z,101595.07
2017-08-20T01:44:47.610Z,101590.69
2017-08-20T01:47:15.271Z,101587.56
2017-08-20T01:49:42.900Z,101589.16
2017-08-20T01:52:10.539Z,101588.98
2017-08-20T01:54:38.190Z,101596.00
2017-08-20T01:57:05.894Z,101599.53
2017-08-20T01:59:33.536Z,101601.70
2017-08-20T02:02:01.166Z,101597.38
2017-08-20T02:04:28.831Z,101605.35
2017-08-20T02:06:56.471Z,101609.13
2017-08-20T02:09:24.057Z,101611.30
2017-08-20T02:11:51.700Z,101616.84
2017-08-20T02:14:19.346Z,101611.45
2017-08-20T02:16:46.950Z,101609.83
2017-08-20T02:19:14.616Z,101609.44
2017-08-20T02:21:42.246Z,101617.53
2017-08-20T02:24:09.887Z,101619.05
2017-08-20T02:26:37.487Z,101620.96
2017-08-20T02:29:05.078Z,101619.16
2017-08-20T02:31:32.670Z,101623.33
2017-08-20T02:34:00.288Z,101625.38
2017-08-20T02:36:27.892Z,101630.55
2017-08-20T02:38:55.508Z,101626.49
2017-08-20T02:41:23.130Z,101630.54
2017-08-20T02:43:50.768Z,101633.64
2017-08-20T02:46:18.370Z,101635.00
2017-08-20T02:48:46.000Z,101635.41
2017-08-20T02:51:13.639Z,101635.13
2017-08-20T02:53:41.281Z,101630.02
2017-08-20T02:56:08.901Z,101632.70
2017-08-20T02:58:36.515Z,101636.61
2017-08-20T03:01:04.135Z,101630.78
2017-08-20T03:03:31.753Z,101636.73
2017-08-20T03:05:59.367Z,101633.48
2017-08-20T03:08:26.995Z,101629.31
2017-08-20T03:10:54.638Z,101635.67
2017-08-20T03:13:22.266Z,101633.37
2017-08-20T03:15:49.898Z,101642.94
2017-08-20T03:18:17.511Z,101645.25
2017-08-20T03:20:45.098Z,101650.94
2017-08-20T03:23:12.777Z,101649.31
2017-08-20T03:25:40.442Z,101645.82
2017-08-20T03:28:08.082Z,101644.74
2017-08-20T03:30:35.675Z,101644.02
2017-08-20T03:33:03.323Z,101649.82
2017-08-20T03:35:30.938Z,101646.73
2017-08-20T03:37:58.559Z,101651.19
2017-08-20T03:40:26.214Z,101651.19
2017-08-20T03:42:53.855Z,101651.72
2017-08-20T03:45:21.459Z,101643.75
2017-08-20T03:47:49.098Z,101643.77
2017-08-20T03:50:16.702Z,101645.38
2017-08-20T03:52:44.490Z,101644.73
2017-08-20T03:55:12.091Z,101652.83
2017-08-20T03:57:39.718Z,101651.98
2017-08-20T04:00:07.341Z,101651.98
2017-08-20T04:02:34.997Z,101655.61
2017-08-20T04:05:02.590Z,101659.38
2017-08-20T04:07:30.179Z,101657.37
2017-08-20T04:09:57.838Z,101656.22
2017-08-20T04:12:25.437Z,101658.10
2017-08-20T04:14:53.076Z,101655.46
2017-08-20T04:17:20.697Z,101661.81
2017-08-20T04:19:48.341Z,101662.58
2017-08-20T04:22:16.355Z,101667.20
2017-08-20T04:24:43.983Z,101665.59
2017-08-20T04:27:11.936Z,101680.70
2017-08-20T04:29:39.566Z,101679.88
2017-08-20T04:32:07.186Z,101676.77
2017-08-20T04:34:34.843Z,101677.61
2017-08-20T04:37:02.464Z,101680.58
2017-08-20T04:39:30.203Z,101687.05
2017-08-20T04:41:57.830Z,101687.75
2017-08-20T04:44:25.474Z,101684.23
2017-08-20T04:46:53.082Z,101687.34
2017-08-20T04:49:20.754Z,101689.49
2017-08-20T04:51:48.346Z,101686.80
2017-08-20T04:54:15.986Z,101690.47
2017-08-20T04:56:43.582Z,101691.53
2017-08-20T04:59:11.223Z,101694.48
2017-08-20T05:01:38.843Z,101706.06
2017-08-20T05:04:06.460Z,101693.66
2017-08-20T05:06:34.055Z,101702.02
2017-08-20T05:09:01.706Z,101701.47
2017-08-20T05:11:29.295Z,101701.48
2017-08-20T05:13:56.930Z,101702.02
2017-08-20T05:16:24.529Z,101702.50
2017-08-20T05:18:52.167Z,101697.73
2017-08-20T05:21:19.761Z,101697.34
2017-08-20T05:23:47.368Z,101698.69
2017-08-20T05:26:15.007Z,101703.22
2017-08-20T05:28:42.615Z,101699.99
2017-08-20T05:31:10.256Z,101702.95
2017-08-20T05:33:37.858Z,101703.63
2017-08-20T05:36:05.486Z,101706.20
2017-08-20T05:38:33.104Z,101710.39
2017-08-20T05:41:00.743Z,101706.58
2017-08-20T05:43:28.335Z,101710.38
2017-08-20T05:45:55.991Z,101715.37
2017-08-20T05:48:23.584Z,101710.92
2017-08-20T05:50:51.202Z,101717.38
2017-08-20T05:53:18.822Z,101724.69
2017-08-20T05:55:46.431Z,101721.16
2017-08-20T05:58:14.063Z,101721.86
2017-08-20T06:00:41.658Z,101724.58
2017-08-20T06:03:09.311Z,101725.80
2017-08-20T06:05:36.967Z,101732.77
2017-08-20T06:08:04.626Z,101732.09
2017-08-20T06:10:32.239Z,101731.30
2017-08-20T06:12:59.871Z,101733.38
2017-08-20T06:15:27.535Z,101732.02
2017-08-20T06:17:55.172Z,101738.66
2017-08-20T06:20:22.778Z,101737.72
2017-08-20T06:22:50.399Z,101740.87
2017-08-20T06:25:18.044Z,101738.59
2017-08-20T06:27:45.696Z,101742.09
2017-08-20T06:30:13.313Z,101746.97
2017-08-20T06:32:40.938Z,101749.46
2017-08-20T06:35:08.562Z,101752.59
2017-08-20T06:37:36.205Z,101747.46
2017-08-20T06:40:03.990Z,101752.48
2017-08-20T06:42:31.621Z,101757.78
2017-08-20T06:44:59.248Z,101757.27
2017-08-20T06:47:26.904Z,101771.84
2017-08-20T06:49:54.550Z,101763.73
2017-08-20T06:52:22.167Z,101765.11
2017-08-20T06:54:49.791Z,101766.59
2017-08-20T06:57:17.465Z,101772.97
2017-08-20T06:59:45.094Z,101779.98
2017-08-20T07:02:12.711Z,101780.64
2017-08-20T07:04:40.354Z,101782.80
2017-08-20T07:07:07.958Z,101775.61
2017-08-20T07:09:35.594Z,101781.70
2017-08-20T07:12:03.316Z,101782.91
2017-08-20T07:14:30.962Z,101798.30
2017-08-20T07:16:58.583Z,101803.13
2017-08-20T07:19:26.195Z,101803.51
2017-08-20T07:21:53.856Z,101810.66
2017-08-20T07:24:21.533Z,101814.06
2017-08-20T07:26:49.126Z,101808.00
2017-08-20T07:29:16.756Z,101805.30
2017-08-20T07:31:44.406Z,101807.05
2017-08-20T07:34:12.027Z,101814.88
2017-08-20T07:36:39.674Z,101816.22
2017-08-20T07:39:07.282Z,101817.54
2017-08-20T07:41:34.994Z,101817.66
2017-08-20T07:44:02.590Z,101820.52
2017-08-20T07:46:30.222Z,101826.73
2017-08-20T07:48:57.838Z,101834.94
2017-08-20T07:51:25.494Z,101826.30
2017-08-20T07:53:53.088Z,101836.81
2017-08-20T07:56:20.740Z,101833.60
2017-08-20T07:58:48.338Z,101827.81
2017-08-20T08:01:15.963Z,101832.71
2017-08-20T08:03:43.603Z,101833.13
2017-08-20T08:06:11.234Z,101832.70
2017-08-20T08:08:38.844Z,101836.91
2017-08-20T08:11:06.535Z,101835.15
2017-08-20T08:13:34.158Z,101840.70
2017-08-20T08:16:01.824Z,101837.89
2017-08-20T08:18:29.421Z,101841.69
2017-08-20T08:20:57.130Z,101847.23
2017-08-20T08:23:24.757Z,101839.28
2017-08-20T08:25:52.388Z,101844.42
2017-08-20T08:28:20.022Z,101844.80
2017-08-20T08:30:47.767Z,101847.91
2017-08-20T08:33:15.403Z,101851.44
2017-08-20T08:35:43.026Z,101851.34
2017-08-20T08:38:10.686Z,101852.90
2017-08-20T08:40:38.303Z,101854.42
2017-08-20T08:43:05.934Z,101850.37
2017-08-20T08:45:33.548Z,101857.67
2017-08-20T08:48:01.232Z,101850.91
2017-08-20T08:50:28.836Z,101849.03
2017-08-20T08:52:56.547Z,101850.37
2017-08-20T08:55:24.204Z,101846.86
2017-08-20T08:57:51.853Z,101848.88
2017-08-20T09:00:19.433Z,101859.15
2017-08-20T09:02:47.118Z,101856.59
2017-08-20T09:05:14.736Z,101857.38
2017-08-20T09:07:42.432Z,101850.63
2017-08-20T09:10:10.062Z,101856.86
2017-08-20T09:12:37.690Z,101855.33
2017-08-20T09:15:05.291Z,101853.97
2017-08-20T09:17:32.915Z,101859.25
2017-08-20T09:20:00.524Z,101861.30
2017-08-20T09:22:28.163Z,101860.74
2017-08-20T09:24:55.756Z,101855.60
2017-08-20T09:27:23.395Z,101853.95
2017-08-20T09:29:51.031Z,101860.25
2017-08-20T09:32:18.662Z,101848.10
2017-08-20T09:34:46.309Z,101852.55
2017-08-20T09:37:13.909Z,101849.97
2017-08-20T09:39:41.566Z,101851.45
2017-08-20T09:42:09.164Z,101842.73
2017-08-20T09:44:36.785Z,101845.66
2017-08-20T09:47:04.425Z,101850.48
2017-08-20T09:49:32.059Z,101845.70
2017-08-20T09:51:59.662Z,101843.75
2017-08-20T09:54:27.303Z,101837.61
2017-08-20T09:56:54.909Z,101840.50
2017-08-20T09:59:22.546Z,101840.54
2017-08-20T10:01:50.142Z,101841.05
2017-08-20T10:04:17.766Z,101843.30
2017-08-20T10:06:45.370Z,101836.44
2017-08-20T10:09:13.025Z,101836.48
2017-08-20T10:11:40.631Z,101843.58
2017-08-20T10:14:08.271Z,101844.38
2017-08-20T10:16:35.945Z,101840.56
2017-08-20T10:19:03.718Z,101843.54
2017-08-20T10:21:31.430Z,101843.09
2017-08-20T10:23:59.046Z,101834.59
2017-08-20T10:26:26.675Z,101834.48
2017-08-20T10:28:54.275Z,101831.62
2017-08-20T10:31:21.920Z,101828.27
2017-08-20T10:33:49.547Z,101829.83
2017-08-20T10:36:18.874Z,101829.73
2017-08-20T10:38:46.507Z,101837.48
2017-08-20T10:41:14.131Z,101836.27
2017-08-20T10:43:41.726Z,101840.37
2017-08-20T10:46:09.363Z,101836.31
2017-08-20T10:48:37.019Z,101840.35
2017-08-20T10:51:04.614Z,101846.19
2017-08-20T10:53:32.294Z,101836.68
2017-08-20T10:55:59.891Z,101833.94
2017-08-20T10:58:27.530Z,101840.56
2017-08-20T11:00:55.140Z,101842.00
2017-08-20T11:03:22.804Z,101849.63
2017-08-20T11:05:50.411Z,101841.44
2017-08-20T11:08:18.055Z,101843.09
2017-08-20T11:10:45.690Z,101845.90
2017-08-20T11:13:13.331Z,101846.75
2017-08-20T11:15:40.922Z,101846.96
2017-08-20T11:18:08.590Z,101848.39
2017-08-20T11:20:36.195Z,101853.03
2017-08-20T11:23:03.842Z,101857.68
2017-08-20T11:25:31.434Z,101853.55
2017-08-20T11:27:59.051Z,101859.55
2017-08-20T11:30:26.805Z,101850.87
2017-08-20T11:32:54.473Z,101860.66
2017-08-20T11:35:22.054Z,101854.92
2017-08-20T11:37:49.703Z,101858.17
2017-08-20T11:40:17.290Z,101857.27
2017-08-20T11:42:44.942Z,101846.25
2017-08-20T11:45:12.602Z,101853.05
2017-08-20T11:47:40.206Z,101855.53
2017-08-20T11:50:07.847Z,101856.89
2017-08-20T11:52:35.514Z,101847.98
2017-08-20T11:55:03.147Z,101849.15
2017-08-20T11:57:30.764Z,101850.98
2017-08-20T11:59:58.382Z,101853.33
2017-08-20T12:02:26.018Z,101859.65
2017-08-20T12:04:53.654Z,101876.69
2017-08-20T12:07:21.259Z,101869.61
2017-08-20T12:09:48.882Z,101871.30
2017-08-20T12:12:17.368Z,101876.14
2017-08-20T12:14:44.978Z,101883.88
2017-08-20T12:17:12.638Z,101902.88
2017-08-20T12:19:40.257Z,101888.77
2017-08-20T12:22:07.862Z,101895.68
2017-08-20T12:24:35.490Z,101888.84
2017-08-20T12:27:03.145Z,101888.68
2017-08-20T12:29:30.762Z,101883.97
2017-08-20T12:31:58.415Z,101877.75
2017-08-20T12:34:26.105Z,101884.96
2017-08-20T12:36:53.727Z,101883.63
2017-08-20T12:39:21.311Z,101884.69
2017-08-20T12:41:48.943Z,101888.76
2017-08-20T12:44:16.615Z,101878.84
2017-08-20T12:46:44.243Z,101872.38
2017-08-20T12:49:11.842Z,101873.79
2017-08-20T12:51:39.462Z,101880.23
2017-08-20T12:54:07.077Z,101882.89
2017-08-20T12:56:34.793Z,101872.29
2017-08-20T12:59:04.286Z,101871.45
2017-08-20T13:01:32.043Z,101861.95
2017-08-20T13:03:59.659Z,101863.03
2017-08-20T13:06:27.313Z,101869.71
2017-08-20T13:08:54.956Z,101872.70
2017-08-20T13:11:22.586Z,101866.71
2017-08-20T13:13:50.178Z,101870.33
2017-08-20T13:16:17.837Z,101882.78
2017-08-20T13:18:45.450Z,101872.67
2017-08-20T13:21:13.099Z,101864.59
2017-08-20T13:23:40.715Z,101861.28
2017-08-20T13:26:08.402Z,101876.08
2017-08-20T13:28:36.011Z,101860.91
2017-08-20T13:31:03.637Z,101862.07
2017-08-20T13:33:31.231Z,101869.52
2017-08-20T13:35:58.853Z,101867.12
2017-08-20T13:38:26.501Z,101863.70
2017-08-20T13:40:54.220Z,101867.21
2017-08-20T13:43:21.846Z,101872.45
2017-08-20T13:45:49.526Z,101866.86
2017-08-20T13:48:17.131Z,101862.13
2017-08-20T13:50:44.791Z,101863.81
2017-08-20T13:53:12.412Z,101858.56
2017-08-20T13:55:40.042Z,101857.55
2017-08-20T13:58:07.671Z,101859.33
2017-08-20T14:00:35.278Z,101867.53
2017-08-20T14:03:02.991Z,101870.27
2017-08-20T14:05:30.577Z,101875.18
2017-08-20T14:07:58.441Z,101881.15
2017-08-20T14:10:26.063Z,101872.95
2017-08-20T14:12:53.682Z,101870.00
2017-08-20T14:15:21.281Z,101871.17
2017-08-20T14:17:48.922Z,101874.42
2017-08-20T14:20:16.527Z,101875.78
2017-08-20T14:22:44.170Z,101877.86
2017-08-20T14:25:11.771Z,101877.53
2017-08-20T14:27:39.603Z,101873.97
2017-08-20T14:30:07.310Z,101879.34
2017-08-20T14:32:35.067Z,101884.78
2017-08-20T14:35:02.770Z,101878.13
2017-08-20T14:37:30.419Z,101880.27
2017-08-20T14:39:58.059Z,101882.42
2017-08-20T14:42:25.683Z,101883.10
2017-08-20T14:44:53.304Z,101873.92
2017-08-20T14:47:20.918Z,101873.88
2017-08-20T14:49:48.631Z,101882.61
2017-08-20T14:52:16.234Z,101873.38
2017-08-20T14:54:43.863Z,101876.72
2017-08-20T14:57:11.485Z,101869.19
2017-08-20T14:59:39.135Z,101868.17
2017-08-20T15:02:06.746Z,101869.89
2017-08-20T15:04:34.376Z,101863.30
2017-08-20T15:07:01.978Z,101870.64
2017-08-20T15:09:29.630Z,101864.14
2017-08-20T15:11:57.282Z,101864.25
2017-08-20T15:14:24.928Z,101862.44
2017-08-20T15:16:52.531Z,101874.13
2017-08-20T15:19:20.196Z,101865.42
2017-08-20T15:21:47.804Z,101863.64
2017-08-20T15:24:15.519Z,101866.69
2017-08-20T15:26:43.119Z,101869.70
2017-08-20T15:29:10.806Z,101874.80
2017-08-20T15:31:38.407Z,101866.91
2017-08-20T15:34:06.042Z,101860.55
2017-08-20T15:36:33.664Z,101861.49
2017-08-20T15:39:01.311Z,101869.25
2017-08-20T15:41:28.905Z,101865.44
2017-08-20T15:43:56.535Z,101861.44
2017-08-20T15:46:24.154Z,101876.13
2017-08-20T15:48:51.775Z,101885.31
2017-08-20T15:51:19.412Z,101889.27
2017-08-20T15:53:47.057Z,101886.98
2017-08-20T15:56:14.671Z,101881.58
2017-08-20T15:58:42.295Z,101875.09
2017-08-20T16:01:09.947Z,101863.25
2017-08-20T16:03:37.558Z,101865.48
2017-08-20T16:06:05.177Z,101863.38
2017-08-20T16:08:32.827Z,101858.41
2017-08-20T16:11:00.499Z,101865.22
2017-08-20T16:13:28.112Z,101860.55
2017-08-20T16:15:55.719Z,101867.63
2017-08-20T16:18:23.358Z,101860.71
2017-08-20T16:20:50.955Z,101860.13
2017-08-20T16:23:18.564Z,101865.29
2017-08-20T16:25:46.179Z,101861.00
2017-08-20T16:28:13.792Z,101857.14
2017-08-20T16:30:41.419Z,101855.41
2017-08-20T16:33:09.046Z,101858.06
2017-08-20T16:35:36.658Z,101851.66
2017-08-20T16:38:04.251Z,101860.17
2017-08-20T16:40:31.886Z,101858.61
2017-08-20T16:42:59.534Z,101861.13
2017-08-20T16:45:27.154Z,101856.41
2017-08-20T16:47:54.753Z,101871.95
2017-08-20T16:50:22.390Z,101867.52
2017-08-20T16:52:49.983Z,101869.75
2017-08-20T16:55:17.594Z,101868.67
2017-08-20T16:57:45.222Z,101863.23
2017-08-20T17:00:12.884Z,101853.45
2017-08-20T17:02:40.522Z,101854.60
2017-08-20T17:05:08.123Z,101851.19
2017-08-20T17:07:35.802Z,101849.89
2017-08-20T17:10:03.387Z,101841.67
2017-08-20T17:12:31.014Z,101837.82
2017-08-20T17:14:58.711Z,101836.42
2017-08-20T17:17:26.342Z,101835.20
2017-08-20T17:19:53.927Z,101835.06
2017-08-20T17:22:21.563Z,101833.21
2017-08-20T17:24:49.171Z,101839.05
2017-08-20T17:27:16.809Z,101842.66
2017-08-20T17:29:44.398Z,101838.95
2017-08-20T17:32:12.062Z,101839.87
2017-08-20T17:34:39.662Z,101834.54
2017-08-20T17:37:07.270Z,101840.49
2017-08-20T17:39:34.924Z,101841.83
2017-08-20T17:42:02.528Z,101852.89
2017-08-20T17:44:30.191Z,101853.75
2017-08-20T17:46:57.943Z,101856.73
2017-08-20T17:49:25.647Z,101854.08
2017-08-20T17:51:53.315Z,101851.61
2017-08-20T17:54:20.957Z,101845.15
2017-08-20T17:56:48.588Z,101844.74
2017-08-20T18:01:43.157Z,101847.91
2017-08-20T18:04:10.819Z,101855.27
2017-08-20T18:06:38.428Z,101852.81
2017-08-20T18:09:06.098Z,101853.81
2017-08-20T18:11:33.718Z,101858.75
2017-08-20T18:14:01.342Z,101856.21
2017-08-20T18:16:29.047Z,101857.45
2017-08-20T18:18:56.675Z,101861.02
2017-08-20T18:21:24.300Z,101862.53
2017-08-20T18:23:51.939Z,101867.82
2017-08-20T18:26:19.552Z,101870.13
2017-08-20T18:28:47.162Z,101872.45
2017-08-20T18:31:14.844Z,101874.93
2017-08-20T18:33:42.471Z,101876.94
2017-08-20T18:36:10.116Z,101880.22
2017-08-20T18:38:37.736Z,101885.92
2017-08-20T18:41:05.454Z,101886.69
2017-08-20T18:43:33.062Z,101890.72
2017-08-20T18:46:00.711Z,101895.25
2017-08-20T18:48:28.363Z,101887.39
2017-08-20T18:50:55.982Z,101887.52
2017-08-20T18:53:23.652Z,101893.24
2017-08-20T18:55:51.303Z,101898.84
2017-08-20T18:58:18.972Z,101908.77
2017-08-20T19:00:46.594Z,101907.31
2017-08-20T19:03:14.247Z,101906.36
2017-08-20T19:05:41.927Z,101907.55
2017-08-20T19:08:09.568Z,101905.78
2017-08-20T19:10:37.211Z,101901.92
2017-08-20T19:13:04.854Z,101898.09
2017-08-20T19:15:32.488Z,101905.61
2017-08-20T19:18:00.176Z,101905.77
2017-08-20T19:20:27.800Z,101909.26
2017-08-20T19:22:55.456Z,101910.22
2017-08-20T19:25:23.085Z,101915.61
2017-08-20T19:27:50.710Z,101918.02
2017-08-20T19:30:18.381Z,101914.30
2017-08-20T19:32:46.056Z,101915.06
2017-08-20T19:35:13.694Z,101917.20
2017-08-20T19:37:41.299Z,101915.45
2017-08-20T19:40:08.935Z,101922.00
2017-08-20T19:42:36.616Z,101922.05
2017-08-20T19:45:04.281Z,101926.56
2017-08-20T19:47:31.894Z,101933.54
2017-08-20T19:49:59.596Z,101929.81
2017-08-20T19:52:27.260Z,101922.67
2017-08-20T19:54:54.963Z,101925.09
2017-08-20T19:57:22.594Z,101931.58
2017-08-20T19:59:50.256Z,101927.88
2017-08-20T20:02:17.854Z,101935.53
2017-08-20T20:04:45.486Z,101935.84
2017-08-20T20:07:13.085Z,101933.67
2017-08-20T20:09:40.728Z,101930.98
2017-08-20T20:12:08.330Z,101938.87
2017-08-20T20:14:35.960Z,101940.91
2017-08-20T20:17:03.627Z,101940.17
2017-08-20T20:19:31.298Z,101936.72
2017-08-20T20:21:58.944Z,101936.88
2017-08-20T20:24:26.583Z,101934.45
2017-08-20T20:26:54.219Z,101942.89
2017-08-20T20:29:21.839Z,101941.31
2017-08-20T20:31:49.515Z,101930.09
2017-08-20T20:34:17.112Z,101936.87
2017-08-20T20:36:44.799Z,101941.60
2017-08-20T20:39:12.401Z,101939.53
2017-08-20T20:41:40.038Z,101930.66
2017-08-20T20:44:07.655Z,101932.55
2017-08-20T20:46:35.275Z,101933.75
2017-08-20T20:49:02.866Z,101935.36
2017-08-20T20:51:30.511Z,101937.48
2017-08-20T20:53:58.128Z,101937.03
2017-08-20T20:56:25.782Z,101943.07
2017-08-20T20:58:53.387Z,101937.84
2017-08-20T21:01:21.003Z,101943.61
2017-08-20T21:03:48.635Z,101953.29
2017-08-20T21:06:16.249Z,101958.76
2017-08-20T21:08:43.930Z,101949.48
2017-08-20T21:11:11.534Z,101945.91
2017-08-20T21:13:39.175Z,101950.56
2017-08-20T21:16:06.802Z,101947.89
2017-08-20T21:18:34.448Z,101954.42
2017-08-20T21:21:02.047Z,101944.27
2017-08-20T21:23:29.692Z,101938.05
2017-08-20T21:25:57.298Z,101937.76
2017-08-20T21:28:24.949Z,101946.07
2017-08-20T21:30:52.582Z,101936.74
2017-08-20T21:33:20.223Z,101937.03
2017-08-20T21:35:47.855Z,101934.74
2017-08-20T21:38:15.502Z,101933.84
2017-08-20T21:40:43.105Z,101935.98
2017-08-20T21:43:10.860Z,101928.34
2017-08-20T21:45:38.551Z,101928.63
2017-08-20T21:48:06.172Z,101932.36
2017-08-20T21:50:33.791Z,101937.16
2017-08-20T21:53:01.411Z,101936.09
2017-08-20T21:55:29.040Z,101930.05
2017-08-20T21:57:56.674Z,101918.53
2017-08-20T22:00:24.346Z,101932.36
2017-08-20T22:02:52.013Z,101936.58
2017-08-20T22:05:19.641Z,101936.34
2017-08-20T22:07:47.273Z,101916.94
2017-08-20T22:10:14.927Z,101922.38
2017-08-20T22:12:42.546Z,101935.23
2017-08-20T22:15:10.178Z,101936.85
2017-08-20T22:17:37.782Z,101940.36
2017-08-20T22:20:05.423Z,101948.14
2017-08-20T22:22:33.021Z,101940.15
2017-08-20T22:25:00.691Z,101937.91
2017-08-20T22:27:28.295Z,101936.01
2017-08-20T22:29:55.927Z,101941.71
2017-08-20T22:32:23.575Z,101940.87
2017-08-20T22:34:51.340Z,101941.28
2017-08-20T22:37:18.947Z,101942.36
2017-08-20T22:39:46.611Z,101938.59
2017-08-20T22:42:14.215Z,101929.38
2017-08-20T22:44:41.839Z,101921.80
2017-08-20T22:47:09.448Z,101926.09
2017-08-20T22:49:37.083Z,101933.14
2017-08-20T22:52:04.679Z,101931.23
2017-08-20T22:54:32.474Z,101922.73
2017-08-20T22:57:00.074Z,101919.09
2017-08-20T22:59:27.687Z,101915.03
2017-08-20T23:01:55.271Z,101917.17
2017-08-20T23:04:22.946Z,101913.40
2017-08-20T23:06:50.552Z,101916.25
2017-08-20T23:09:18.242Z,101912.89
2017-08-20T23:11:45.830Z,101911.39
2017-08-20T23:14:13.455Z,101904.63
2017-08-20T23:16:41.039Z,101909.56
2017-08-20T23:19:08.698Z,101928.52
2017-08-20T23:21:36.300Z,101929.17
2017-08-20T23:24:03.939Z,101924.03
2017-08-20T23:26:31.532Z,101922.80
2017-08-20T23:28:59.173Z,101914.68
2017-08-20T23:31:26.770Z,101906.56
2017-08-20T23:33:54.370Z,101916.47
2017-08-20T23:36:21.990Z,101918.14
2017-08-20T23:38:49.578Z,101911.23
2017-08-20T23:41:17.218Z,101910.82
2017-08-20T23:43:44.816Z,101901.62
2017-08-20T23:46:12.431Z,101900.55
2017-08-20T23:48:40.023Z,101908.91
2017-08-20T23:51:07.711Z,101915.54
2017-08-20T23:53:35.308Z,101914.09
2017-08-20T23:56:02.922Z,101914.36
2017-08-20T23:58:30.582Z,101914.78
